Dallas, Texas
Traffic Map
Current Weather Conditions
Dallas, Texas
Broken Clouds
Broken Clouds
69°
Feels Like: 69°
Wind Chill: 69° Ceiling: 25000
Heat Index: 69° Visibility: 10mi
Dew Point: 37° Wind: 17mph
Humidity: 31% Direction: 360° (N)
Pressure: 30.26in Gusts: 23mph
Raw Report DataKDAL 291953Z 36015G20KT 10SM FEW120 FEW180 BKN250 21/03 A3026 RMK AO2 SLP244 T02060028
Traffic Incident Summary
Active as of:
Severity:
Category:
InformationThere was an issue retrieving the traffic information for this location. Please try a different location or try again shortly.
Advertisements
Track Severe Weather on mobile